sensor_id;sensor_type;location;lat;lon;timestamp;P1;durP1;ratioP1;P2;durP2;ratioP2
34872;SDS011;21084;51.098;14.506;2023-04-21T00:01:17;91.13;;;42.08;;
34872;SDS011;21084;51.098;14.506;2023-04-21T00:03:46;90.57;;;40.45;;
34872;SDS011;21084;51.098;14.506;2023-04-21T00:06:16;82.13;;;38.78;;
34872;SDS011;21084;51.098;14.506;2023-04-21T00:08:50;73.75;;;35.10;;
34872;SDS011;21084;51.098;14.506;2023-04-21T00:11:19;78.13;;;36.13;;
34872;SDS011;21084;51.098;14.506;2023-04-21T00:13:48;85.32;;;39.03;;
34872;SDS011;21084;51.098;14.506;2023-04-21T00:16:16;77.00;;;35.92;;
34872;SDS011;21084;51.098;14.506;2023-04-21T00:18:46;74.05;;;36.97;;
34872;SDS011;21084;51.098;14.506;2023-04-21T00:21:14;78.82;;;35.90;;
34872;SDS011;21084;51.098;14.506;2023-04-21T00:23:43;78.68;;;36.83;;
34872;SDS011;21084;51.098;14.506;2023-04-21T00:26:14;85.38;;;40.05;;
34872;SDS011;21084;51.098;14.506;2023-04-21T00:28:43;87.38;;;39.20;;
34872;SDS011;21084;51.098;14.506;2023-04-21T00:31:11;79.63;;;37.75;;
34872;SDS011;21084;51.098;14.506;2023-04-21T00:33:40;85.20;;;42.60;;
34872;SDS011;21084;51.098;14.506;2023-04-21T00:36:09;93.05;;;40.58;;
34872;SDS011;21084;51.098;14.506;2023-04-21T00:38:37;95.85;;;40.78;;
34872;SDS011;21084;51.098;14.506;2023-04-21T00:41:06;95.55;;;42.72;;
34872;SDS011;21084;51.098;14.506;2023-04-21T00:43:36;81.97;;;40.45;;
34872;SDS011;21084;51.098;14.506;2023-04-21T00:46:26;90.78;;;38.88;;
34872;SDS011;21084;51.098;14.506;2023-04-21T00:48:55;87.03;;;39.43;;
34872;SDS011;21084;51.098;14.506;2023-04-21T00:51:24;76.43;;;37.08;;
34872;SDS011;21084;51.098;14.506;2023-04-21T00:53:54;72.10;;;35.85;;
34872;SDS011;21084;51.098;14.506;2023-04-21T00:56:23;69.68;;;34.15;;
34872;SDS011;21084;51.098;14.506;2023-04-21T00:58:54;73.47;;;34.75;;
34872;SDS011;21084;51.098;14.506;2023-04-21T01:01:26;77.20;;;35.03;;
34872;SDS011;21084;51.098;14.506;2023-04-21T01:03:56;74.53;;;33.70;;
34872;SDS011;21084;51.098;14.506;2023-04-21T01:08:55;73.88;;;33.83;;
34872;SDS011;21084;51.098;14.506;2023-04-21T01:11:24;72.88;;;32.55;;
34872;SDS011;21084;51.098;14.506;2023-04-21T01:13:54;73.10;;;31.75;;
34872;SDS011;21084;51.098;14.506;2023-04-21T01:18:52;65.88;;;30.83;;
34872;SDS011;21084;51.098;14.506;2023-04-21T01:21:22;77.90;;;31.10;;
34872;SDS011;21084;51.098;14.506;2023-04-21T01:23:52;71.40;;;30.83;;
34872;SDS011;21084;51.098;14.506;2023-04-21T01:26:20;62.75;;;29.83;;
34872;SDS011;21084;51.098;14.506;2023-04-21T01:28:49;68.93;;;30.13;;
34872;SDS011;21084;51.098;14.506;2023-04-21T01:31:18;70.87;;;32.33;;
34872;SDS011;21084;51.098;14.506;2023-04-21T01:33:48;65.95;;;30.77;;
34872;SDS011;21084;51.098;14.506;2023-04-21T01:36:17;75.65;;;33.20;;
34872;SDS011;21084;51.098;14.506;2023-04-21T01:38:46;69.65;;;31.52;;
34872;SDS011;21084;51.098;14.506;2023-04-21T01:41:17;65.78;;;32.63;;
34872;SDS011;21084;51.098;14.506;2023-04-21T01:43:45;69.93;;;32.25;;
34872;SDS011;21084;51.098;14.506;2023-04-21T01:46:14;70.80;;;32.28;;
34872;SDS011;21084;51.098;14.506;2023-04-21T01:48:46;68.65;;;31.48;;
34872;SDS011;21084;51.098;14.506;2023-04-21T01:51:14;69.47;;;30.48;;
34872;SDS011;21084;51.098;14.506;2023-04-21T01:53:43;58.58;;;28.45;;
34872;SDS011;21084;51.098;14.506;2023-04-21T01:56:12;60.25;;;28.95;;
34872;SDS011;21084;51.098;14.506;2023-04-21T01:58:42;67.90;;;28.58;;
34872;SDS011;21084;51.098;14.506;2023-04-21T02:01:11;59.35;;;27.20;;
34872;SDS011;21084;51.098;14.506;2023-04-21T02:03:40;59.20;;;27.40;;
34872;SDS011;21084;51.098;14.506;2023-04-21T02:06:09;60.63;;;25.67;;
34872;SDS011;21084;51.098;14.506;2023-04-21T02:08:39;62.78;;;27.35;;
34872;SDS011;21084;51.098;14.506;2023-04-21T02:11:08;56.40;;;27.42;;
34872;SDS011;21084;51.098;14.506;2023-04-21T02:13:36;54.30;;;26.35;;
34872;SDS011;21084;51.098;14.506;2023-04-21T02:16:07;59.28;;;25.80;;
34872;SDS011;21084;51.098;14.506;2023-04-21T02:18:40;52.72;;;25.33;;
34872;SDS011;21084;51.098;14.506;2023-04-21T02:21:10;62.83;;;28.33;;
34872;SDS011;21084;51.098;14.506;2023-04-21T02:23:38;57.95;;;26.33;;
34872;SDS011;21084;51.098;14.506;2023-04-21T02:26:08;60.10;;;29.02;;
34872;SDS011;21084;51.098;14.506;2023-04-21T02:28:36;65.00;;;29.87;;
34872;SDS011;21084;51.098;14.506;2023-04-21T02:31:06;61.25;;;28.88;;
34872;SDS011;21084;51.098;14.506;2023-04-21T02:33:35;67.47;;;28.90;;
34872;SDS011;21084;51.098;14.506;2023-04-21T02:36:04;59.85;;;29.73;;
34872;SDS011;21084;51.098;14.506;2023-04-21T02:38:33;60.47;;;29.60;;
34872;SDS011;21084;51.098;14.506;2023-04-21T02:41:02;55.83;;;27.48;;
34872;SDS011;21084;51.098;14.506;2023-04-21T02:43:31;53.13;;;26.10;;
34872;SDS011;21084;51.098;14.506;2023-04-21T02:46:04;50.45;;;26.35;;
34872;SDS011;21084;51.098;14.506;2023-04-21T02:48:35;63.47;;;27.13;;
34872;SDS011;21084;51.098;14.506;2023-04-21T02:51:04;64.90;;;27.08;;
34872;SDS011;21084;51.098;14.506;2023-04-21T02:53:32;45.77;;;23.80;;
34872;SDS011;21084;51.098;14.506;2023-04-21T02:56:01;54.35;;;26.55;;
34872;SDS011;21084;51.098;14.506;2023-04-21T02:58:30;54.33;;;24.90;;
34872;SDS011;21084;51.098;14.506;2023-04-21T03:00:59;52.25;;;25.00;;
34872;SDS011;21084;51.098;14.506;2023-04-21T03:03:28;53.13;;;24.97;;
34872;SDS011;21084;51.098;14.506;2023-04-21T03:05:59;53.75;;;23.45;;
34872;SDS011;21084;51.098;14.506;2023-04-21T03:08:28;51.47;;;23.95;;
34872;SDS011;21084;51.098;14.506;2023-04-21T03:10:58;54.53;;;25.73;;
34872;SDS011;21084;51.098;14.506;2023-04-21T03:13:26;44.53;;;23.30;;
34872;SDS011;21084;51.098;14.506;2023-04-21T03:15:55;52.85;;;24.42;;
34872;SDS011;21084;51.098;14.506;2023-04-21T03:18:24;50.55;;;22.85;;
34872;SDS011;21084;51.098;14.506;2023-04-21T03:20:59;54.67;;;22.80;;
34872;SDS011;21084;51.098;14.506;2023-04-21T03:23:27;43.38;;;22.73;;
34872;SDS011;21084;51.098;14.506;2023-04-21T03:25:56;56.88;;;24.70;;
34872;SDS011;21084;51.098;14.506;2023-04-21T03:28:24;57.75;;;24.13;;
34872;SDS011;21084;51.098;14.506;2023-04-21T03:30:53;47.55;;;24.52;;
34872;SDS011;21084;51.098;14.506;2023-04-21T03:33:22;54.53;;;25.67;;
34872;SDS011;21084;51.098;14.506;2023-04-21T03:35:51;55.53;;;25.92;;
34872;SDS011;21084;51.098;14.506;2023-04-21T03:38:21;54.05;;;26.27;;
34872;SDS011;21084;51.098;14.506;2023-04-21T03:43:18;52.08;;;24.77;;
34872;SDS011;21084;51.098;14.506;2023-04-21T03:45:46;49.65;;;24.85;;
34872;SDS011;21084;51.098;14.506;2023-04-21T03:48:15;55.85;;;24.40;;
34872;SDS011;21084;51.098;14.506;2023-04-21T03:50:43;50.00;;;24.40;;
34872;SDS011;21084;51.098;14.506;2023-04-21T03:53:12;49.92;;;24.85;;
34872;SDS011;21084;51.098;14.506;2023-04-21T03:55:42;48.70;;;24.50;;
34872;SDS011;21084;51.098;14.506;2023-04-21T03:58:14;59.30;;;25.58;;
34872;SDS011;21084;51.098;14.506;2023-04-21T04:00:43;63.35;;;26.85;;
34872;SDS011;21084;51.098;14.506;2023-04-21T04:03:11;55.55;;;24.88;;
34872;SDS011;21084;51.098;14.506;2023-04-21T04:05:40;49.35;;;24.48;;
34872;SDS011;21084;51.098;14.506;2023-04-21T04:08:09;49.17;;;24.13;;
34872;SDS011;21084;51.098;14.506;2023-04-21T04:10:38;61.60;;;26.38;;
34872;SDS011;21084;51.098;14.506;2023-04-21T04:13:07;50.03;;;23.88;;
34872;SDS011;21084;51.098;14.506;2023-04-21T04:15:36;48.20;;;23.42;;
34872;SDS011;21084;51.098;14.506;2023-04-21T04:18:05;54.95;;;25.42;;
34872;SDS011;21084;51.098;14.506;2023-04-21T04:20:34;55.17;;;27.77;;
34872;SDS011;21084;51.098;14.506;2023-04-21T04:23:02;47.63;;;24.85;;
34872;SDS011;21084;51.098;14.506;2023-04-21T04:25:31;50.13;;;25.03;;
34872;SDS011;21084;51.098;14.506;2023-04-21T04:28:00;52.80;;;23.95;;
34872;SDS011;21084;51.098;14.506;2023-04-21T04:30:30;55.63;;;23.15;;
34872;SDS011;21084;51.098;14.506;2023-04-21T04:32:59;57.03;;;24.30;;
34872;SDS011;21084;51.098;14.506;2023-04-21T04:35:29;47.25;;;21.90;;
34872;SDS011;21084;51.098;14.506;2023-04-21T04:37:58;46.17;;;22.42;;
34872;SDS011;21084;51.098;14.506;2023-04-21T04:40:26;48.53;;;22.63;;
34872;SDS011;21084;51.098;14.506;2023-04-21T04:42:56;53.70;;;23.58;;
34872;SDS011;21084;51.098;14.506;2023-04-21T04:45:25;50.25;;;23.48;;
34872;SDS011;21084;51.098;14.506;2023-04-21T04:50:23;55.03;;;24.95;;
34872;SDS011;21084;51.098;14.506;2023-04-21T04:52:52;54.05;;;25.13;;
34872;SDS011;21084;51.098;14.506;2023-04-21T04:55:21;46.75;;;19.30;;
34872;SDS011;21084;51.098;14.506;2023-04-21T04:57:51;78.25;;;31.63;;
34872;SDS011;21084;51.098;14.506;2023-04-21T05:00:20;70.90;;;34.00;;
34872;SDS011;21084;51.098;14.506;2023-04-21T05:02:48;91.73;;;36.47;;
34872;SDS011;21084;51.098;14.506;2023-04-21T05:05:18;85.70;;;37.22;;
34872;SDS011;21084;51.098;14.506;2023-04-21T05:07:47;87.65;;;38.08;;
34872;SDS011;21084;51.098;14.506;2023-04-21T05:10:16;89.13;;;37.92;;
34872;SDS011;21084;51.098;14.506;2023-04-21T05:12:44;97.85;;;41.75;;
34872;SDS011;21084;51.098;14.506;2023-04-21T05:15:14;86.85;;;39.38;;
34872;SDS011;21084;51.098;14.506;2023-04-21T05:17:43;84.57;;;37.70;;
34872;SDS011;21084;51.098;14.506;2023-04-21T05:20:12;88.63;;;38.53;;
34872;SDS011;21084;51.098;14.506;2023-04-21T05:22:42;79.13;;;36.10;;
34872;SDS011;21084;51.098;14.506;2023-04-21T05:25:11;85.57;;;34.85;;
34872;SDS011;21084;51.098;14.506;2023-04-21T05:30:10;83.75;;;34.50;;
34872;SDS011;21084;51.098;14.506;2023-04-21T05:32:38;71.38;;;35.05;;
34872;SDS011;21084;51.098;14.506;2023-04-21T05:35:07;66.93;;;31.15;;
34872;SDS011;21084;51.098;14.506;2023-04-21T05:37:36;59.60;;;31.23;;
34872;SDS011;21084;51.098;14.506;2023-04-21T05:40:06;55.22;;;28.77;;
34872;SDS011;21084;51.098;14.506;2023-04-21T05:42:36;57.40;;;28.67;;
34872;SDS011;21084;51.098;14.506;2023-04-21T05:45:04;57.33;;;25.05;;
34872;SDS011;21084;51.098;14.506;2023-04-21T05:47:34;52.53;;;25.20;;
34872;SDS011;21084;51.098;14.506;2023-04-21T05:50:04;47.30;;;22.55;;
34872;SDS011;21084;51.098;14.506;2023-04-21T05:52:33;48.63;;;22.98;;
34872;SDS011;21084;51.098;14.506;2023-04-21T05:55:03;48.83;;;21.25;;
34872;SDS011;21084;51.098;14.506;2023-04-21T05:57:33;42.67;;;19.00;;
34872;SDS011;21084;51.098;14.506;2023-04-21T06:02:31;41.28;;;18.63;;
34872;SDS011;21084;51.098;14.506;2023-04-21T06:05:00;47.93;;;19.80;;
34872;SDS011;21084;51.098;14.506;2023-04-21T06:07:29;38.85;;;17.60;;
34872;SDS011;21084;51.098;14.506;2023-04-21T06:09:58;42.97;;;17.27;;
34872;SDS011;21084;51.098;14.506;2023-04-21T06:12:26;36.47;;;16.92;;
34872;SDS011;21084;51.098;14.506;2023-04-21T06:14:56;34.30;;;16.25;;
34872;SDS011;21084;51.098;14.506;2023-04-21T06:19:53;33.53;;;15.25;;
34872;SDS011;21084;51.098;14.506;2023-04-21T06:22:22;36.17;;;15.43;;
34872;SDS011;21084;51.098;14.506;2023-04-21T06:24:52;33.28;;;15.05;;
34872;SDS011;21084;51.098;14.506;2023-04-21T06:27:20;42.07;;;14.47;;
34872;SDS011;21084;51.098;14.506;2023-04-21T06:29:52;36.07;;;14.67;;
34872;SDS011;21084;51.098;14.506;2023-04-21T06:32:23;32.05;;;14.07;;
34872;SDS011;21084;51.098;14.506;2023-04-21T06:34:52;35.75;;;14.77;;
34872;SDS011;21084;51.098;14.506;2023-04-21T06:37:20;43.72;;;13.60;;
34872;SDS011;21084;51.098;14.506;2023-04-21T06:39:49;36.85;;;13.02;;
34872;SDS011;21084;51.098;14.506;2023-04-21T06:42:18;29.70;;;12.88;;
34872;SDS011;21084;51.098;14.506;2023-04-21T06:44:47;30.23;;;12.75;;
34872;SDS011;21084;51.098;14.506;2023-04-21T06:47:16;32.55;;;13.40;;
34872;SDS011;21084;51.098;14.506;2023-04-21T06:49:47;39.35;;;12.68;;
34872;SDS011;21084;51.098;14.506;2023-04-21T06:52:15;31.80;;;12.65;;
34872;SDS011;21084;51.098;14.506;2023-04-21T06:54:45;29.33;;;12.60;;
34872;SDS011;21084;51.098;14.506;2023-04-21T06:57:14;28.90;;;12.23;;
34872;SDS011;21084;51.098;14.506;2023-04-21T06:59:43;27.77;;;12.60;;
34872;SDS011;21084;51.098;14.506;2023-04-21T07:02:11;30.23;;;11.95;;
34872;SDS011;21084;51.098;14.506;2023-04-21T07:04:40;26.05;;;12.63;;
34872;SDS011;21084;51.098;14.506;2023-04-21T07:07:10;29.38;;;10.90;;
34872;SDS011;21084;51.098;14.506;2023-04-21T07:09:40;24.77;;;10.38;;
34872;SDS011;21084;51.098;14.506;2023-04-21T07:12:12;28.85;;;10.98;;
34872;SDS011;21084;51.098;14.506;2023-04-21T07:14:41;23.17;;;9.90;;
34872;SDS011;21084;51.098;14.506;2023-04-21T07:17:10;24.83;;;10.32;;
34872;SDS011;21084;51.098;14.506;2023-04-21T07:19:38;29.85;;;10.32;;
34872;SDS011;21084;51.098;14.506;2023-04-21T07:22:07;19.45;;;9.18;;
34872;SDS011;21084;51.098;14.506;2023-04-21T07:24:37;25.13;;;9.45;;
34872;SDS011;21084;51.098;14.506;2023-04-21T07:29:33;17.33;;;8.25;;
34872;SDS011;21084;51.098;14.506;2023-04-21T07:32:03;27.53;;;9.30;;
34872;SDS011;21084;51.098;14.506;2023-04-21T07:34:31;18.20;;;8.80;;
34872;SDS011;21084;51.098;14.506;2023-04-21T07:37:00;20.48;;;8.20;;
34872;SDS011;21084;51.098;14.506;2023-04-21T07:39:28;17.83;;;7.53;;
34872;SDS011;21084;51.098;14.506;2023-04-21T07:41:58;20.63;;;8.43;;
34872;SDS011;21084;51.098;14.506;2023-04-21T07:46:55;22.85;;;7.40;;
34872;SDS011;21084;51.098;14.506;2023-04-21T07:49:24;15.52;;;7.47;;
34872;SDS011;21084;51.098;14.506;2023-04-21T07:51:53;21.60;;;8.02;;
34872;SDS011;21084;51.098;14.506;2023-04-21T07:54:21;22.15;;;7.35;;
34872;SDS011;21084;51.098;14.506;2023-04-21T07:56:50;17.67;;;6.97;;
34872;SDS011;21084;51.098;14.506;2023-04-21T07:59:20;15.57;;;6.80;;
34872;SDS011;21084;51.098;14.506;2023-04-21T08:01:49;13.85;;;5.43;;
34872;SDS011;21084;51.098;14.506;2023-04-21T08:04:18;18.07;;;6.17;;
34872;SDS011;21084;51.098;14.506;2023-04-21T08:06:47;16.67;;;5.55;;
34872;SDS011;21084;51.098;14.506;2023-04-21T08:09:16;14.50;;;5.85;;
34872;SDS011;21084;51.098;14.506;2023-04-21T08:11:45;13.70;;;5.43;;
34872;SDS011;21084;51.098;14.506;2023-04-21T08:14:14;15.57;;;6.13;;
34872;SDS011;21084;51.098;14.506;2023-04-21T08:17:01;13.23;;;6.32;;
34872;SDS011;21084;51.098;14.506;2023-04-21T08:19:30;15.57;;;6.55;;
34872;SDS011;21084;51.098;14.506;2023-04-21T08:21:58;16.40;;;6.20;;
34872;SDS011;21084;51.098;14.506;2023-04-21T08:24:27;16.20;;;6.68;;
34872;SDS011;21084;51.098;14.506;2023-04-21T08:26:55;13.95;;;6.10;;
34872;SDS011;21084;51.098;14.506;2023-04-21T08:29:24;13.63;;;5.82;;
34872;SDS011;21084;51.098;14.506;2023-04-21T08:31:52;19.25;;;7.50;;
34872;SDS011;21084;51.098;14.506;2023-04-21T08:34:23;17.52;;;6.30;;
34872;SDS011;21084;51.098;14.506;2023-04-21T08:36:53;14.65;;;6.20;;
34872;SDS011;21084;51.098;14.506;2023-04-21T08:39:22;17.80;;;6.87;;
34872;SDS011;21084;51.098;14.506;2023-04-21T08:41:51;12.52;;;5.97;;
34872;SDS011;21084;51.098;14.506;2023-04-21T08:44:20;15.88;;;5.70;;
34872;SDS011;21084;51.098;14.506;2023-04-21T08:46:49;14.43;;;5.95;;
34872;SDS011;21084;51.098;14.506;2023-04-21T08:49:18;15.63;;;5.68;;
34872;SDS011;21084;51.098;14.506;2023-04-21T08:51:49;16.70;;;6.57;;
34872;SDS011;21084;51.098;14.506;2023-04-21T08:54:17;13.85;;;5.75;;
34872;SDS011;21084;51.098;14.506;2023-04-21T08:56:46;15.63;;;5.75;;
34872;SDS011;21084;51.098;14.506;2023-04-21T08:59:15;15.05;;;5.70;;
34872;SDS011;21084;51.098;14.506;2023-04-21T09:04:39;17.60;;;5.60;;
34872;SDS011;21084;51.098;14.506;2023-04-21T09:07:11;12.95;;;5.45;;
34872;SDS011;21084;51.098;14.506;2023-04-21T09:09:56;13.98;;;5.13;;
34872;SDS011;21084;51.098;14.506;2023-04-21T09:12:26;11.15;;;5.35;;
34872;SDS011;21084;51.098;14.506;2023-04-21T09:14:55;15.95;;;5.53;;
34872;SDS011;21084;51.098;14.506;2023-04-21T09:17:27;11.52;;;4.90;;
34872;SDS011;21084;51.098;14.506;2023-04-21T09:20:10;13.32;;;5.53;;
34872;SDS011;21084;51.098;14.506;2023-04-21T09:22:43;11.90;;;4.57;;
34872;SDS011;21084;51.098;14.506;2023-04-21T09:25:14;14.57;;;5.13;;
34872;SDS011;21084;51.098;14.506;2023-04-21T09:27:44;13.27;;;4.70;;
34872;SDS011;21084;51.098;14.506;2023-04-21T09:30:13;10.43;;;4.45;;
34872;SDS011;21084;51.098;14.506;2023-04-21T09:32:46;9.52;;;4.78;;
34872;SDS011;21084;51.098;14.506;2023-04-21T09:35:14;9.88;;;4.90;;
34872;SDS011;21084;51.098;14.506;2023-04-21T09:37:44;11.38;;;4.50;;
34872;SDS011;21084;51.098;14.506;2023-04-21T09:40:13;10.68;;;4.40;;
34872;SDS011;21084;51.098;14.506;2023-04-21T09:42:44;7.88;;;4.63;;
34872;SDS011;21084;51.098;14.506;2023-04-21T09:45:13;10.60;;;5.00;;
34872;SDS011;21084;51.098;14.506;2023-04-21T09:48:03;19.05;;;4.80;;
34872;SDS011;21084;51.098;14.506;2023-04-21T09:50:35;12.32;;;4.85;;
34872;SDS011;21084;51.098;14.506;2023-04-21T09:53:26;9.75;;;4.95;;
34872;SDS011;21084;51.098;14.506;2023-04-21T09:55:56;19.90;;;6.15;;
34872;SDS011;21084;51.098;14.506;2023-04-21T10:00:55;25.63;;;7.27;;
34872;SDS011;21084;51.098;14.506;2023-04-21T10:03:26;13.88;;;5.00;;
34872;SDS011;21084;51.098;14.506;2023-04-21T10:05:56;25.02;;;8.30;;
34872;SDS011;21084;51.098;14.506;2023-04-21T10:08:27;9.00;;;4.60;;
34872;SDS011;21084;51.098;14.506;2023-04-21T10:10:55;12.75;;;5.15;;
34872;SDS011;21084;51.098;14.506;2023-04-21T10:16:00;11.52;;;5.47;;
34872;SDS011;21084;51.098;14.506;2023-04-21T10:18:30;9.88;;;4.75;;
34872;SDS011;21084;51.098;14.506;2023-04-21T10:21:02;11.02;;;5.18;;
34872;SDS011;21084;51.098;14.506;2023-04-21T10:23:38;9.73;;;5.30;;
34872;SDS011;21084;51.098;14.506;2023-04-21T10:26:11;13.70;;;4.65;;
34872;SDS011;21084;51.098;14.506;2023-04-21T10:28:43;14.73;;;5.60;;
34872;SDS011;21084;51.098;14.506;2023-04-21T10:31:16;15.95;;;5.28;;
34872;SDS011;21084;51.098;14.506;2023-04-21T10:39:53;10.95;;;5.43;;
34872;SDS011;21084;51.098;14.506;2023-04-21T10:42:23;13.48;;;5.25;;
34872;SDS011;21084;51.098;14.506;2023-04-21T10:45:00;12.73;;;5.93;;
34872;SDS011;21084;51.098;14.506;2023-04-21T10:50:23;10.40;;;5.88;;
34872;SDS011;21084;51.098;14.506;2023-04-21T10:52:56;11.07;;;5.13;;
34872;SDS011;21084;51.098;14.506;2023-04-21T10:55:28;15.88;;;5.53;;
34872;SDS011;21084;51.098;14.506;2023-04-21T10:57:59;12.30;;;4.70;;
34872;SDS011;21084;51.098;14.506;2023-04-21T11:00:29;10.65;;;4.20;;
34872;SDS011;21084;51.098;14.506;2023-04-21T11:02:59;17.20;;;5.10;;
34872;SDS011;21084;51.098;14.506;2023-04-21T11:05:35;8.02;;;4.10;;
34872;SDS011;21084;51.098;14.506;2023-04-21T11:08:07;7.90;;;4.30;;
34872;SDS011;21084;51.098;14.506;2023-04-21T11:10:42;14.50;;;4.30;;
34872;SDS011;21084;51.098;14.506;2023-04-21T11:13:13;8.57;;;4.32;;
34872;SDS011;21084;51.098;14.506;2023-04-21T11:15:54;9.00;;;4.73;;
34872;SDS011;21084;51.098;14.506;2023-04-21T11:18:30;14.48;;;4.97;;
34872;SDS011;21084;51.098;14.506;2023-04-21T11:21:07;14.90;;;5.75;;
34872;SDS011;21084;51.098;14.506;2023-04-21T11:23:40;8.23;;;4.88;;
34872;SDS011;21084;51.098;14.506;2023-04-21T11:26:16;17.80;;;6.35;;
34872;SDS011;21084;51.098;14.506;2023-04-21T11:28:46;12.80;;;5.15;;
34872;SDS011;21084;51.098;14.506;2023-04-21T11:31:16;13.30;;;6.13;;
34872;SDS011;21084;51.098;14.506;2023-04-21T11:33:45;13.02;;;5.47;;
34872;SDS011;21084;51.098;14.506;2023-04-21T11:36:14;14.37;;;6.20;;
34872;SDS011;21084;51.098;14.506;2023-04-21T11:38:43;12.20;;;5.77;;
34872;SDS011;21084;51.098;14.506;2023-04-21T11:41:11;11.90;;;6.25;;
34872;SDS011;21084;51.098;14.506;2023-04-21T11:43:50;15.20;;;5.90;;
34872;SDS011;21084;51.098;14.506;2023-04-21T11:46:21;10.70;;;5.25;;
34872;SDS011;21084;51.098;14.506;2023-04-21T11:48:59;12.65;;;5.50;;
34872;SDS011;21084;51.098;14.506;2023-04-21T11:51:33;9.38;;;5.50;;
34872;SDS011;21084;51.098;14.506;2023-04-21T11:54:03;10.65;;;5.82;;
34872;SDS011;21084;51.098;14.506;2023-04-21T11:56:35;10.18;;;5.25;;
34872;SDS011;21084;51.098;14.506;2023-04-21T11:59:05;11.07;;;5.22;;
34872;SDS011;21084;51.098;14.506;2023-04-21T12:01:41;12.80;;;5.15;;
34872;SDS011;21084;51.098;14.506;2023-04-21T12:04:12;8.85;;;4.72;;
34872;SDS011;21084;51.098;14.506;2023-04-21T12:06:43;10.48;;;5.47;;
34872;SDS011;21084;51.098;14.506;2023-04-21T12:09:15;9.13;;;4.90;;
34872;SDS011;21084;51.098;14.506;2023-04-21T12:11:48;11.65;;;5.53;;
34872;SDS011;21084;51.098;14.506;2023-04-21T12:14:18;19.73;;;4.80;;
34872;SDS011;21084;51.098;14.506;2023-04-21T12:16:47;8.20;;;4.95;;
34872;SDS011;21084;51.098;14.506;2023-04-21T12:19:21;10.48;;;5.15;;
34872;SDS011;21084;51.098;14.506;2023-04-21T12:21:52;8.65;;;4.57;;
34872;SDS011;21084;51.098;14.506;2023-04-21T12:26:51;11.70;;;5.40;;
34872;SDS011;21084;51.098;14.506;2023-04-21T12:29:20;13.15;;;5.18;;
34872;SDS011;21084;51.098;14.506;2023-04-21T12:31:49;8.77;;;5.07;;
34872;SDS011;21084;51.098;14.506;2023-04-21T12:34:17;14.38;;;5.25;;
34872;SDS011;21084;51.098;14.506;2023-04-21T12:36:47;11.35;;;5.35;;
34872;SDS011;21084;51.098;14.506;2023-04-21T12:39:15;12.32;;;5.63;;
34872;SDS011;21084;51.098;14.506;2023-04-21T12:41:44;15.48;;;5.50;;
34872;SDS011;21084;51.098;14.506;2023-04-21T12:44:16;7.97;;;5.03;;
34872;SDS011;21084;51.098;14.506;2023-04-21T12:46:44;11.45;;;6.03;;
34872;SDS011;21084;51.098;14.506;2023-04-21T12:49:14;14.90;;;5.22;;
34872;SDS011;21084;51.098;14.506;2023-04-21T12:51:43;9.70;;;5.77;;
34872;SDS011;21084;51.098;14.506;2023-04-21T12:54:12;10.23;;;6.13;;
34872;SDS011;21084;51.098;14.506;2023-04-21T12:56:41;14.50;;;5.88;;
34872;SDS011;21084;51.098;14.506;2023-04-21T12:59:10;11.65;;;6.57;;
34872;SDS011;21084;51.098;14.506;2023-04-21T13:01:40;12.40;;;5.67;;
34872;SDS011;21084;51.098;14.506;2023-04-21T13:04:09;8.35;;;5.40;;
34872;SDS011;21084;51.098;14.506;2023-04-21T13:06:39;9.43;;;5.35;;
34872;SDS011;21084;51.098;14.506;2023-04-21T13:09:08;15.88;;;6.55;;
34872;SDS011;21084;51.098;14.506;2023-04-21T13:11:37;9.68;;;5.70;;
34872;SDS011;21084;51.098;14.506;2023-04-21T13:14:06;12.67;;;5.37;;
34872;SDS011;21084;51.098;14.506;2023-04-21T13:16:35;8.30;;;4.90;;
34872;SDS011;21084;51.098;14.506;2023-04-21T13:19:05;6.28;;;4.70;;
34872;SDS011;21084;51.098;14.506;2023-04-21T13:21:34;7.43;;;5.00;;
34872;SDS011;21084;51.098;14.506;2023-04-21T13:24:03;12.93;;;5.53;;
34872;SDS011;21084;51.098;14.506;2023-04-21T13:26:32;11.50;;;5.75;;
34872;SDS011;21084;51.098;14.506;2023-04-21T13:29:01;12.90;;;6.03;;
34872;SDS011;21084;51.098;14.506;2023-04-21T13:31:30;13.00;;;6.30;;
34872;SDS011;21084;51.098;14.506;2023-04-21T13:33:59;10.05;;;6.07;;
34872;SDS011;21084;51.098;14.506;2023-04-21T13:36:30;13.95;;;6.13;;
34872;SDS011;21084;51.098;14.506;2023-04-21T13:39:00;14.52;;;6.15;;
34872;SDS011;21084;51.098;14.506;2023-04-21T13:41:30;9.68;;;6.38;;
34872;SDS011;21084;51.098;14.506;2023-04-21T13:43:58;10.45;;;5.97;;
34872;SDS011;21084;51.098;14.506;2023-04-21T13:46:27;13.70;;;6.53;;
34872;SDS011;21084;51.098;14.506;2023-04-21T13:48:56;11.35;;;6.53;;
34872;SDS011;21084;51.098;14.506;2023-04-21T13:53:57;13.23;;;6.20;;
34872;SDS011;21084;51.098;14.506;2023-04-21T13:56:25;13.68;;;7.40;;
34872;SDS011;21084;51.098;14.506;2023-04-21T13:58:54;15.57;;;6.70;;
34872;SDS011;21084;51.098;14.506;2023-04-21T14:01:24;9.98;;;6.47;;
34872;SDS011;21084;51.098;14.506;2023-04-21T14:03:54;9.90;;;6.18;;
34872;SDS011;21084;51.098;14.506;2023-04-21T14:06:23;13.73;;;6.72;;
34872;SDS011;21084;51.098;14.506;2023-04-21T14:08:52;12.65;;;6.47;;
34872;SDS011;21084;51.098;14.506;2023-04-21T14:11:22;12.48;;;7.53;;
34872;SDS011;21084;51.098;14.506;2023-04-21T14:13:51;11.05;;;7.13;;
34872;SDS011;21084;51.098;14.506;2023-04-21T14:16:35;17.80;;;7.35;;
34872;SDS011;21084;51.098;14.506;2023-04-21T14:19:04;13.30;;;6.97;;
34872;SDS011;21084;51.098;14.506;2023-04-21T14:21:33;13.15;;;6.88;;
34872;SDS011;21084;51.098;14.506;2023-04-21T14:24:02;15.35;;;7.32;;
34872;SDS011;21084;51.098;14.506;2023-04-21T14:26:32;15.45;;;7.20;;
34872;SDS011;21084;51.098;14.506;2023-04-21T14:29:01;11.07;;;7.10;;
34872;SDS011;21084;51.098;14.506;2023-04-21T14:31:30;12.90;;;6.50;;
34872;SDS011;21084;51.098;14.506;2023-04-21T14:33:59;12.00;;;7.47;;
34872;SDS011;21084;51.098;14.506;2023-04-21T14:36:28;13.73;;;6.93;;
34872;SDS011;21084;51.098;14.506;2023-04-21T14:38:56;11.20;;;7.70;;
34872;SDS011;21084;51.098;14.506;2023-04-21T14:41:25;12.90;;;7.25;;
34872;SDS011;21084;51.098;14.506;2023-04-21T14:43:55;15.02;;;7.45;;
34872;SDS011;21084;51.098;14.506;2023-04-21T14:46:26;13.15;;;7.25;;
34872;SDS011;21084;51.098;14.506;2023-04-21T14:48:55;12.57;;;7.47;;
34872;SDS011;21084;51.098;14.506;2023-04-21T14:51:24;14.50;;;7.35;;
34872;SDS011;21084;51.098;14.506;2023-04-21T14:53:53;11.63;;;7.00;;
34872;SDS011;21084;51.098;14.506;2023-04-21T14:56:21;9.05;;;6.75;;
34872;SDS011;21084;51.098;14.506;2023-04-21T14:58:50;15.38;;;7.85;;
34872;SDS011;21084;51.098;14.506;2023-04-21T15:01:20;13.63;;;7.57;;
34872;SDS011;21084;51.098;14.506;2023-04-21T15:03:51;9.63;;;6.93;;
34872;SDS011;21084;51.098;14.506;2023-04-21T15:06:23;12.80;;;7.88;;
34872;SDS011;21084;51.098;14.506;2023-04-21T15:08:52;13.52;;;7.30;;
34872;SDS011;21084;51.098;14.506;2023-04-21T15:11:21;14.50;;;7.45;;
34872;SDS011;21084;51.098;14.506;2023-04-21T15:13:50;9.95;;;6.93;;
34872;SDS011;21084;51.098;14.506;2023-04-21T15:16:18;84.77;;;43.33;;